M I D A S
Marine Information and Data Acquisition System
Tripno 976 of the Zeeleeuw from 2005-10-21 06:37:41 to 2005-10-21 11:33:22
Back to CruiseResearch ActivitiesStationsMapUnderway DataData graphs

EquipmentUnitsComments
TimeDGPSUTC
LatitudeDGPSDM.mWGS84
LongitudeDGPSDM.mWGS84
SpeedMeteo Stationm/sRelative wind speed
DirectionMeteo StationdegRelative wind direction
TemperatureMeteo Stationdeg CelciusAir temperature
PressureMeteo StationPaAtmospheric pressure
HumidityMeteo Station%Relative humidity
Missing or incorrect values are displayed as -999
Metereological data collected by the RV Zeeleeuw from 2005-10-21 06:38:08 to 2005-10-21 11:34:33
                                                                                    Next 1000 lines
Time Latitude Longitude Speed Direction Temperature Pressure Humidity
2005-10-21 06:38:17 51°13.602 2°56.095 -999 52 12.3 100080 100
2005-10-21 06:38:23 51°13.602 2°56.092 -999 42 12.3 100080 100
2005-10-21 06:38:28 51°13.603 2°56.088 -999 42 12.3 100080 100
2005-10-21 06:38:33 51°13.604 2°56.084 -999 59 12.3 100080 100
2005-10-21 06:38:37 51°13.605 2°56.081 -999 53 12.3 100080 100
2005-10-21 06:38:43 51°13.606 2°56.075 -999 60 12.3 100080 100
2005-10-21 06:38:49 51°13.607 2°56.069 -999 72 12.3 100080 100
2005-10-21 06:38:53 51°13.608 2°56.064 -999 74 12.3 100080 100
2005-10-21 06:38:58 51°13.61 2°56.059 -999 80 12.3 100080 100
2005-10-21 06:39:03 51°13.611 2°56.053 -999 88 12.3 100080 100
2005-10-21 06:39:08 51°13.613 2°56.046 -999 57 12.3 100080 100
2005-10-21 06:39:13 51°13.615 2°56.039 -999 56 12.3 100080 100
2005-10-21 06:39:17 51°13.616 2°56.033 -999 101 12.3 100080 100
2005-10-21 06:39:23 51°13.618 2°56.024 -999 87 12.3 100070 100
2005-10-21 06:39:28 51°13.619 2°56.017 -999 71 12.3 100070 100
2005-10-21 06:39:33 51°13.62 2°56.01 -999 67 12.3 100080 100
2005-10-21 06:39:38 51°13.621 2°56.005 -999 69 12.3 100080 100
2005-10-21 06:39:43 51°13.621 2°56.002 -999 73 12.3 100070 100
2005-10-21 06:39:49 51°13.622 2°56 -999 50 12.3 100070 100
2005-10-21 06:39:53 51°13.621 2°56 -999 43 12.3 100070 100
2005-10-21 06:39:59 51°13.621 2°56.001 -999 43 12.3 100070 100
2005-10-21 06:40:03 51°13.621 2°56 -999 49 12.3 100080 100
2005-10-21 06:40:08 51°13.622 2°55.999 -999 37 12.3 100080 100
2005-10-21 06:40:13 51°13.623 2°55.996 -999 36 12.3 100070 100
2005-10-21 06:40:17 51°13.624 2°55.994 -999 90 12.3 100070 100
2005-10-21 06:40:23 51°13.625 2°55.989 -999 67 12.3 100070 100
2005-10-21 06:40:28 51°13.626 2°55.985 -999 67 12.3 100070 100
2005-10-21 06:40:33 51°13.629 2°55.98 -999 73 12.3 100070 100
2005-10-21 06:40:37 51°13.631 2°55.976 -999 82 12.3 100070 100
2005-10-21 06:40:43 51°13.634 2°55.968 -999 82 12.3 100070 100
2005-10-21 06:40:49 51°13.638 2°55.961 -999 97 12.3 100070 100
2005-10-21 06:40:53 51°13.639 2°55.956 -999 77 12.3 100070 100
2005-10-21 06:40:58 51°13.641 2°55.95 -999 69 12.3 100070 100
2005-10-21 06:41:03 51°13.643 2°55.943 -999 56 12.3 100070 100
2005-10-21 06:41:08 51°13.647 2°55.935 -999 74 12.3 100070 100
2005-10-21 06:41:13 51°13.65 2°55.928 -999 77 12.4 100070 100
2005-10-21 06:41:18 51°13.654 2°55.92 -999 73 12.4 100070 100
2005-10-21 06:41:23 51°13.658 2°55.912 -999 70 12.4 100070 100
2005-10-21 06:41:28 51°13.662 2°55.903 -999 79 12.4 100070 100
2005-10-21 06:41:33 51°13.665 2°55.895 -999 68 12.3 100070 100
2005-10-21 06:41:39 51°13.669 2°55.884 -999 70 12.3 100070 100
2005-10-21 06:41:43 51°13.672 2°55.877 -999 71 12.4 100070 100
2005-10-21 06:41:48 51°13.675 2°55.868 -999 48 12.4 100070 100
2005-10-21 06:41:53 51°13.679 2°55.859 -999 47 12.4 100070 100
2005-10-21 06:41:59 51°13.683 2°55.848 -999 99 12.4 100070 100
2005-10-21 06:42:03 51°13.685 2°55.84 -999 100 12.4 100070 100
2005-10-21 06:42:09 51°13.689 2°55.829 -999 97 12.4 100070 100
2005-10-21 06:42:13 51°13.691 2°55.821 -999 86 12.4 100070 100
2005-10-21 06:42:19 51°13.693 2°55.808 -999 94 12.4 100070 100
2005-10-21 06:42:23 51°13.695 2°55.8 -999 95 12.4 100070 100
2005-10-21 06:42:29 51°13.697 2°55.789 -999 122 12.4 100070 100
2005-10-21 06:42:33 51°13.698 2°55.783 -999 121 12.4 100070 100
2005-10-21 06:42:38 51°13.699 2°55.776 -999 100 12.4 100070 100
2005-10-21 06:42:43 51°13.7 2°55.77 -999 108 12.4 100070 100
2005-10-21 06:42:48 51°13.7 2°55.766 -999 120 12.4 100070 100
2005-10-21 06:42:53 51°13.701 2°55.762 -999 123 12.4 100070 100
2005-10-21 06:42:58 51°13.701 2°55.76 -999 99 12.4 100070 100
2005-10-21 06:43:03 51°13.702 2°55.759 -999 118 12.4 100070 100
2005-10-21 06:43:08 51°13.702 2°55.758 -999 126 12.4 100070 100
2005-10-21 06:43:13 51°13.703 2°55.759 -999 108 12.4 100070 100
2005-10-21 06:43:17 51°13.704 2°55.759 -999 113 12.4 100070 100
2005-10-21 06:43:23 51°13.705 2°55.759 -999 100 12.4 100060 100
2005-10-21 06:43:28 51°13.706 2°55.758 -999 136 12.4 100060 100
2005-10-21 06:43:33 51°13.706 2°55.757 -999 132 12.4 100060 100
2005-10-21 06:43:37 51°13.706 2°55.756 -999 143 12.4 100060 100
2005-10-21 06:43:43 51°13.705 2°55.754 -999 134 12.4 100070 100
2005-10-21 06:43:48 51°13.704 2°55.752 -999 141 12.4 100070 100
2005-10-21 06:43:53 51°13.702 2°55.749 -999 155 12.5 100070 100
2005-10-21 06:43:57 51°13.701 2°55.747 -999 146 12.5 100070 100
2005-10-21 06:44:03 51°13.698 2°55.744 -999 145 12.5 100070 100
2005-10-21 06:44:08 51°13.696 2°55.742 -999 152 12.5 100070 100
2005-10-21 06:44:13 51°13.695 2°55.741 -999 137 12.4 100070 100
2005-10-21 06:44:19 51°13.695 2°55.74 -999 137 12.4 100070 100
2005-10-21 06:44:23 51°13.696 2°55.739 -999 128 12.5 100060 100
2005-10-21 06:44:28 51°13.697 2°55.738 -999 148 12.5 100060 100
2005-10-21 06:44:33 51°13.698 2°55.737 -999 163 12.5 100070 100
2005-10-21 06:44:39 51°13.7 2°55.736 -999 166 12.5 100070 100
2005-10-21 06:44:43 51°13.702 2°55.735 -999 166 12.5 100070 100
2005-10-21 06:44:48 51°13.705 2°55.734 -999 171 12.5 100070 100
2005-10-21 06:44:53 51°13.709 2°55.731 -999 167 12.4 100070 100
2005-10-21 06:44:57 51°13.713 2°55.728 -999 177 12.4 100070 100
2005-10-21 06:45:03 51°13.72 2°55.722 -999 191 12.5 100070 100
2005-10-21 06:45:08 51°13.726 2°55.716 -999 192 12.5 100070 100
2005-10-21 06:45:13 51°13.733 2°55.71 -999 192 12.5 100070 100
2005-10-21 06:45:18 51°13.741 2°55.703 -999 190 12.5 100070 100
2005-10-21 06:45:23 51°13.75 2°55.695 -999 191 12.5 100010 100
2005-10-21 06:45:28 51°13.758 2°55.688 -999 300 12.5 100010 100
2005-10-21 06:45:33 51°13.768 2°55.68 -999 278 12.5 100010 100
2005-10-21 06:45:38 51°13.778 2°55.671 -999 54 12.5 100010 100
2005-10-21 06:45:43 51°13.788 2°55.662 -999 162 12.5 100010 100
2005-10-21 06:45:48 51°13.798 2°55.654 -999 137 12.5 100010 100
2005-10-21 06:45:53 51°13.809 2°55.645 -999 127 12.5 100010 100
2005-10-21 06:45:57 51°13.818 2°55.639 -999 153 12.5 100010 100
2005-10-21 06:46:03 51°13.832 2°55.629 -999 136 12.5 100010 100
2005-10-21 06:46:08 51°13.844 2°55.62 -999 163 12.5 100010 100
2005-10-21 06:46:13 51°13.856 2°55.611 -999 149 12.5 100010 100
2005-10-21 06:46:18 51°13.868 2°55.603 -999 146 12.5 100010 100
2005-10-21 06:46:23 51°13.88 2°55.594 -999 146 12.5 100010 100
2005-10-21 06:46:28 51°13.892 2°55.585 -999 133 12.5 100010 100
2005-10-21 06:46:33 51°13.904 2°55.576 -999 133 12.5 100010 100
2005-10-21 06:46:38 51°13.916 2°55.568 -999 132 12.5 100010 100
2005-10-21 06:46:43 51°13.928 2°55.559 -999 132 12.5 100010 100
2005-10-21 06:46:48 51°13.941 2°55.551 -999 132 12.5 100010 100
2005-10-21 06:46:53 51°13.953 2°55.542 -999 132 12.5 100010 100
2005-10-21 06:46:58 51°13.966 2°55.534 -999 104 12.5 100010 100
2005-10-21 06:47:03 51°13.979 2°55.525 -999 103 12.5 100020 100
2005-10-21 06:47:08 51°13.992 2°55.516 -999 112 12.5 100020 100
2005-10-21 06:47:13 51°14.005 2°55.508 -999 105 12.5 100010 100
2005-10-21 06:47:17 51°14.015 2°55.5 -999 99 12.5 100010 100
2005-10-21 06:47:23 51°14.03 2°55.489 -999 99 12.5 100010 100
2005-10-21 06:47:28 51°14.043 2°55.479 -999 101 12.5 100010 100
2005-10-21 06:47:33 51°14.056 2°55.47 -999 102 12.6 100010 100
2005-10-21 06:47:37 51°14.066 2°55.462 -999 176 12.6 100010 100
2005-10-21 06:47:43 51°14.081 2°55.451 -999 176 12.6 100010 100
2005-10-21 06:47:48 51°14.094 2°55.44 -999 218 12.6 100010 100
2005-10-21 06:47:53 51°14.108 2°55.43 -999 220 12.6 100010 100
2005-10-21 06:47:57 51°14.119 2°55.421 -999 228 12.6 100010 100
2005-10-21 06:48:03 51°14.135 2°55.407 -999 235 12.6 100010 100
2005-10-21 06:48:08 51°14.149 2°55.395 -999 242 12.6 100010 100
2005-10-21 06:48:13 51°14.163 2°55.383 -999 258 12.6 100000 100
2005-10-21 06:48:17 51°14.173 2°55.373 -999 306 12.6 100000 100
2005-10-21 06:48:23 51°14.19 2°55.357 -999 305 12.6 100000 100
2005-10-21 06:48:28 51°14.203 2°55.343 -999 306 12.6 100000 100
2005-10-21 06:48:33 51°14.216 2°55.328 -999 307 12.6 100000 100
2005-10-21 06:48:38 51°14.228 2°55.312 -999 300 12.6 100000 100
2005-10-21 06:48:43 51°14.241 2°55.295 -999 304 12.6 100000 100
2005-10-21 06:48:48 51°14.253 2°55.277 -999 305 12.6 100000 100
2005-10-21 06:48:53 51°14.264 2°55.257 -999 306 12.6 100000 100
2005-10-21 06:48:57 51°14.273 2°55.241 -999 288 12.6 100000 100
2005-10-21 06:49:03 51°14.286 2°55.215 -999 303 12.6 100000 100
2005-10-21 06:49:08 51°14.296 2°55.192 -999 287 12.6 100000 100
2005-10-21 06:49:13 51°14.306 2°55.169 -999 320 12.6 100060 100
2005-10-21 06:49:17 51°14.314 2°55.15 -999 333 12.6 100060 100
2005-10-21 06:49:23 51°14.325 2°55.121 -999 42 12.6 100060 100
2005-10-21 06:49:28 51°14.334 2°55.097 -999 305 12.6 100060 100
2005-10-21 06:49:33 51°14.342 2°55.071 -999 300 12.6 100060 100
2005-10-21 06:49:38 51°14.349 2°55.045 -999 319 12.6 100060 100
2005-10-21 06:49:43 51°14.356 2°55.019 -999 332 12.6 100060 100
2005-10-21 06:49:48 51°14.362 2°54.992 -999 328 12.6 100060 100
2005-10-21 06:49:53 51°14.368 2°54.966 -999 334 12.6 100060 100
2005-10-21 06:49:58 51°14.374 2°54.938 -999 333 12.6 100060 100
2005-10-21 06:50:03 51°14.379 2°54.911 -999 337 12.6 100060 100
2005-10-21 06:50:08 51°14.385 2°54.883 -999 312 12.6 100060 100
2005-10-21 06:50:13 51°14.391 2°54.854 -999 40 12.6 100060 100
2005-10-21 06:50:18 51°14.396 2°54.826 -999 227 12.6 100060 100
2005-10-21 06:50:23 51°14.401 2°54.797 -999 313 12.6 100060 100
2005-10-21 06:50:28 51°14.406 2°54.768 -999 228 12.6 100060 100
2005-10-21 06:50:33 51°14.412 2°54.738 -999 313 12.6 100060 100
2005-10-21 06:50:37 51°14.416 2°54.715 -999 310 12.6 100060 100
2005-10-21 06:50:43 51°14.423 2°54.68 -999 309 12.6 100050 100
2005-10-21 06:50:48 51°14.428 2°54.651 -999 304 12.6 100050 100
2005-10-21 06:50:53 51°14.434 2°54.621 -999 311 12.6 100050 100
2005-10-21 06:50:57 51°14.438 2°54.597 -999 306 12.6 100050 100
2005-10-21 06:51:03 51°14.444 2°54.562 -999 306 12.6 100080 100
2005-10-21 06:51:08 51°14.448 2°54.532 -999 310 12.6 100080 100
2005-10-21 06:51:13 51°14.453 2°54.502 -999 315 12.6 100040 100
2005-10-21 06:51:17 51°14.457 2°54.478 -999 311 12.6 100040 100
2005-10-21 06:51:23 51°14.462 2°54.442 -999 306 12.6 100050 100
2005-10-21 06:51:28 51°14.466 2°54.412 -999 302 12.6 100050 100
2005-10-21 06:51:33 51°14.47 2°54.382 -999 300 12.6 100050 100
2005-10-21 06:51:37 51°14.473 2°54.358 -999 307 12.6 100050 100
2005-10-21 06:51:43 51°14.477 2°54.322 -999 307 12.7 100040 100
2005-10-21 06:51:48 51°14.48 2°54.292 -999 298 12.7 100040 100
2005-10-21 06:51:53 51°14.482 2°54.262 -999 306 12.7 100040 100
2005-10-21 06:51:57 51°14.482 2°54.237 -999 303 12.7 100040 100
2005-10-21 06:52:03 51°14.482 2°54.201 -999 305 12.7 100040 100
2005-10-21 06:52:08 51°14.482 2°54.171 -999 312 12.7 100040 100
2005-10-21 06:52:13 51°14.48 2°54.141 -999 228 12.7 100050 100
2005-10-21 06:52:17 51°14.478 2°54.117 -999 316 12.7 100050 100
2005-10-21 06:52:23 51°14.474 2°54.082 -999 319 12.7 100040 100
2005-10-21 06:52:28 51°14.467 2°54.053 -999 321 12.7 100040 100
2005-10-21 06:52:33 51°14.461 2°54.026 -999 324 12.7 100040 100
2005-10-21 06:52:37 51°14.454 2°54.004 -999 319 12.7 100040 100
2005-10-21 06:52:43 51°14.445 2°53.971 -999 319 12.7 100030 100
2005-10-21 06:52:48 51°14.437 2°53.944 -999 325 12.7 100030 100
2005-10-21 06:52:53 51°14.428 2°53.918 -999 324 12.7 100030 100
2005-10-21 06:52:57 51°14.421 2°53.896 -999 325 12.7 100030 100
2005-10-21 06:53:03 51°14.41 2°53.865 -999 324 12.7 100030 100
2005-10-21 06:53:08 51°14.401 2°53.838 -999 329 12.7 100030 100
2005-10-21 06:53:13 51°14.391 2°53.812 -999 328 12.7 100030 100
2005-10-21 06:53:18 51°14.382 2°53.786 -999 323 12.7 100030 100
2005-10-21 06:53:23 51°14.372 2°53.76 -999 326 12.8 100020 100
2005-10-21 06:53:28 51°14.361 2°53.735 -999 325 12.8 100020 100
2005-10-21 06:53:33 51°14.351 2°53.71 -999 327 12.7 100030 100
2005-10-21 06:53:37 51°14.342 2°53.69 -999 334 12.7 100030 100
2005-10-21 06:53:43 51°14.328 2°53.661 -999 336 12.7 100030 100
2005-10-21 06:53:48 51°14.316 2°53.638 -999 334 12.7 100030 100
2005-10-21 06:53:53 51°14.304 2°53.614 -999 340 12.8 100020 100
2005-10-21 06:53:57 51°14.295 2°53.596 -999 337 12.8 100020 100
2005-10-21 06:54:03 51°14.279 2°53.57 -999 336 12.7 100020 100
2005-10-21 06:54:08 51°14.266 2°53.548 -999 336 12.7 100020 100
2005-10-21 06:54:13 51°14.252 2°53.529 -999 336 12.8 100030 100
2005-10-21 06:54:17 51°14.241 2°53.512 -999 343 12.8 100030 100
2005-10-21 06:54:23 51°14.223 2°53.489 -999 337 12.8 100030 100
2005-10-21 06:54:28 51°14.209 2°53.47 -999 338 12.8 100030 100
2005-10-21 06:54:33 51°14.194 2°53.451 -999 336 12.8 100030 100
2005-10-21 06:54:38 51°14.179 2°53.433 -999 343 12.8 100030 100
2005-10-21 06:54:43 51°14.164 2°53.415 -999 339 12.8 100030 100
2005-10-21 06:54:48 51°14.149 2°53.397 -999 337 12.8 100030 100
2005-10-21 06:54:53 51°14.134 2°53.38 -999 335 12.8 100030 100
2005-10-21 06:54:57 51°14.121 2°53.366 -999 337 12.8 100030 100
2005-10-21 06:55:03 51°14.103 2°53.346 -999 336 12.8 100020 100
2005-10-21 06:55:08 51°14.087 2°53.329 -999 340 12.8 100020 100
2005-10-21 06:55:13 51°14.071 2°53.313 -999 346 12.8 100030 100
2005-10-21 06:55:18 51°14.055 2°53.298 -999 348 12.8 100030 100
2005-10-21 06:55:23 51°14.039 2°53.283 -999 337 12.8 100010 100
2005-10-21 06:55:28 51°14.022 2°53.269 -999 338 12.8 100010 100
2005-10-21 06:55:33 51°14.006 2°53.254 -999 342 12.8 100020 100
2005-10-21 06:55:38 51°13.989 2°53.241 -999 351 12.8 100020 100
2005-10-21 06:55:43 51°13.973 2°53.227 -999 353 12.8 100030 100
2005-10-21 06:55:48 51°13.956 2°53.214 -999 357 12.8 100030 100
2005-10-21 06:55:53 51°13.939 2°53.202 -999 350 12.8 100030 100
2005-10-21 06:55:58 51°13.922 2°53.189 -999 353 12.8 100030 100
2005-10-21 06:56:03 51°13.905 2°53.176 -999 345 12.8 100030 100
2005-10-21 06:56:08 51°13.888 2°53.164 -999 347 12.8 100030 100
2005-10-21 06:56:13 51°13.871 2°53.152 -999 351 12.8 100040 100
2005-10-21 06:56:18 51°13.854 2°53.139 -999 347 12.8 100040 100
2005-10-21 06:56:23 51°13.837 2°53.125 -999 345 12.8 100040 100
2005-10-21 06:56:28 51°13.821 2°53.111 -999 341 12.8 100040 100
2005-10-21 06:56:33 51°13.805 2°53.095 -999 340 12.8 100050 100
2005-10-21 06:56:38 51°13.789 2°53.079 -999 337 12.8 100050 100
2005-10-21 06:56:43 51°13.773 2°53.062 -999 344 12.8 100050 100
2005-10-21 06:56:48 51°13.758 2°53.044 -999 343 12.8 100050 100
2005-10-21 06:56:53 51°13.743 2°53.025 -999 335 12.8 100040 100
2005-10-21 06:56:58 51°13.729 2°53.004 -999 340 12.8 100040 100
2005-10-21 06:57:03 51°13.716 2°52.982 -999 333 12.8 100030 100
2005-10-21 06:57:08 51°13.703 2°52.959 -999 338 12.8 100030 100
2005-10-21 06:57:13 51°13.691 2°52.936 -999 334 12.8 100040 100
2005-10-21 06:57:17 51°13.682 2°52.917 -999 334 12.8 100040 100
2005-10-21 06:57:23 51°13.668 2°52.888 -999 338 12.7 100030 100
2005-10-21 06:57:28 51°13.657 2°52.862 -999 337 12.7 100030 100
2005-10-21 06:57:33 51°13.646 2°52.837 -999 330 12.7 100040 100
2005-10-21 06:57:37 51°13.637 2°52.816 -999 324 12.7 100040 100
2005-10-21 06:57:43 51°13.625 2°52.785 -999 326 12.7 100040 100
2005-10-21 06:57:48 51°13.615 2°52.759 -999 326 12.7 100040 100
2005-10-21 06:57:53 51°13.606 2°52.732 -999 328 12.7 100040 100
2005-10-21 06:57:58 51°13.596 2°52.705 -999 327 12.7 100040 100
2005-10-21 06:58:03 51°13.587 2°52.678 -999 39 12.7 100040 100
2005-10-21 06:58:08 51°13.577 2°52.652 -999 320 12.7 100040 100
2005-10-21 06:58:13 51°13.568 2°52.625 -999 327 12.7 100040 100
2005-10-21 06:58:18 51°13.558 2°52.598 -999 324 12.7 100040 100
2005-10-21 06:58:23 51°13.548 2°52.571 -999 333 12.7 100030 100
2005-10-21 06:58:28 51°13.538 2°52.545 -999 322 12.7 100030 100
2005-10-21 06:58:33 51°13.528 2°52.519 -999 331 12.7 100030 100
2005-10-21 06:58:38 51°13.518 2°52.492 -999 334 12.7 100030 100
2005-10-21 06:58:43 51°13.507 2°52.466 -999 333 12.7 100030 100
2005-10-21 06:58:48 51°13.497 2°52.44 -999 330 12.7 100030 100
2005-10-21 06:58:53 51°13.486 2°52.414 -999 335 12.7 100030 100
2005-10-21 06:58:57 51°13.478 2°52.393 -999 329 12.7 100030 100
2005-10-21 06:59:03 51°13.467 2°52.361 -999 327 12.7 100040 100
2005-10-21 06:59:08 51°13.457 2°52.334 -999 322 12.7 100040 100
2005-10-21 06:59:13 51°13.448 2°52.307 -999 323 12.7 100030 100
2005-10-21 06:59:18 51°13.439 2°52.279 -999 331 12.7 100030 100
2005-10-21 06:59:23 51°13.431 2°52.252 -999 330 12.7 100030 100
2005-10-21 06:59:28 51°13.422 2°52.224 -999 321 12.7 100030 100
2005-10-21 06:59:33 51°13.413 2°52.197 -999 326 12.7 100030 100
2005-10-21 06:59:38 51°13.404 2°52.169 -999 333 12.7 100030 100
2005-10-21 06:59:43 51°13.395 2°52.142 -999 334 12.7 100030 100
2005-10-21 06:59:48 51°13.386 2°52.115 -999 327 12.7 100030 100
2005-10-21 06:59:53 51°13.377 2°52.088 -999 326 12.7 100030 100
2005-10-21 06:59:57 51°13.369 2°52.067 -999 328 12.7 100030 100
2005-10-21 07:00:03 51°13.358 2°52.035 -999 328 12.7 100030 100
2005-10-21 07:00:08 51°13.348 2°52.008 -999 330 12.7 100030 100
2005-10-21 07:00:13 51°13.338 2°51.981 -999 326 12.7 100040 100
2005-10-21 07:00:17 51°13.331 2°51.96 -999 326 12.7 100040 100
2005-10-21 07:00:23 51°13.319 2°51.928 -999 324 12.7 100040 100
2005-10-21 07:00:28 51°13.31 2°51.901 -999 331 12.7 100040 100
2005-10-21 07:00:33 51°13.301 2°51.875 -999 329 12.7 100040 100
2005-10-21 07:00:37 51°13.293 2°51.853 -999 327 12.7 100040 100
2005-10-21 07:00:43 51°13.282 2°51.82 -999 331 12.7 100050 100
2005-10-21 07:00:48 51°13.273 2°51.794 -999 329 12.7 100050 100
2005-10-21 07:00:53 51°13.264 2°51.766 -999 329 12.7 100040 100
2005-10-21 07:00:57 51°13.257 2°51.745 -999 332 12.7 100040 100
2005-10-21 07:01:03 51°13.247 2°51.712 -999 331 12.7 100050 100
2005-10-21 07:01:08 51°13.238 2°51.685 -999 329 12.7 100050 100
2005-10-21 07:01:13 51°13.228 2°51.658 -999 329 12.7 100050 100
2005-10-21 07:01:17 51°13.221 2°51.637 -999 329 12.7 100050 100
2005-10-21 07:01:23 51°13.21 2°51.605 -999 329 12.7 100040 100
2005-10-21 07:01:28 51°13.2 2°51.579 -999 330 12.7 100040 100
2005-10-21 07:01:33 51°13.191 2°51.552 -999 329 12.7 100040 100
2005-10-21 07:01:37 51°13.183 2°51.531 -999 328 12.7 100040 100
2005-10-21 07:01:41 51°13.176 2°51.51 -999 330 12.7 100050 100
2005-10-21 07:01:48 51°13.162 2°51.473 -999 332 12.7 100050 100
2005-10-21 07:01:53 51°13.153 2°51.447 -999 330 12.7 100050 100
2005-10-21 07:01:58 51°13.144 2°51.42 -999 331 12.7 100050 100
2005-10-21 07:02:03 51°13.135 2°51.393 -999 330 12.7 100050 100
2005-10-21 07:02:08 51°13.127 2°51.366 -999 327 12.7 100050 100
2005-10-21 07:02:13 51°13.118 2°51.338 -999 328 12.7 100040 100
2005-10-21 07:02:18 51°13.109 2°51.312 -999 332 12.7 100040 100
2005-10-21 07:02:23 51°13.1 2°51.285 -999 330 12.7 100050 100
2005-10-21 07:02:28 51°13.092 2°51.258 -999 329 12.7 100050 100
2005-10-21 07:02:33 51°13.084 2°51.233 -999 335 12.7 100040 100
2005-10-21 07:02:38 51°13.075 2°51.207 -999 325 12.7 100040 100
2005-10-21 07:02:43 51°13.064 2°51.177 -999 319 12.7 100040 100
2005-10-21 07:02:48 51°13.053 2°51.148 -999 333 12.7 100040 100
2005-10-21 07:02:53 51°13.044 2°51.121 -999 335 12.7 100050 100
2005-10-21 07:02:57 51°13.036 2°51.099 -999 327 12.7 100050 100
2005-10-21 07:03:03 51°13.025 2°51.067 -999 331 12.7 100050 100
2005-10-21 07:03:08 51°13.016 2°51.041 -999 327 12.7 100050 100
2005-10-21 07:03:13 51°13.006 2°51.014 -999 333 12.7 100050 100
2005-10-21 07:03:17 51°12.999 2°50.992 -999 332 12.7 100050 100
2005-10-21 07:03:23 51°12.988 2°50.96 -999 327 12.7 100040 100
2005-10-21 07:03:28 51°12.979 2°50.933 -999 333 12.7 100040 100
2005-10-21 07:03:33 51°12.97 2°50.905 -999 330 12.7 100050 100
2005-10-21 07:03:37 51°12.963 2°50.887 -999 330 12.7 100050 100
2005-10-21 07:03:43 51°12.952 2°50.856 -999 332 12.7 100050 100
2005-10-21 07:03:48 51°12.943 2°50.829 -999 331 12.7 100050 100
2005-10-21 07:03:53 51°12.934 2°50.802 -999 326 12.7 100050 100
2005-10-21 07:03:58 51°12.924 2°50.776 -999 331 12.7 100050 100
2005-10-21 07:04:03 51°12.915 2°50.75 -999 333 12.7 100050 100
2005-10-21 07:04:08 51°12.905 2°50.723 -999 332 12.7 100050 100
2005-10-21 07:04:13 51°12.895 2°50.697 -999 333 12.7 100050 100
2005-10-21 07:04:17 51°12.888 2°50.676 -999 332 12.7 100050 100
2005-10-21 07:04:23 51°12.876 2°50.644 -999 332 12.7 100050 100
2005-10-21 07:04:28 51°12.867 2°50.617 -999 336 12.7 100050 100
2005-10-21 07:04:33 51°12.858 2°50.589 -999 332 12.7 100040 100
2005-10-21 07:04:38 51°12.849 2°50.562 -999 332 12.7 100040 100
2005-10-21 07:04:43 51°12.84 2°50.535 -999 332 12.7 100050 100
2005-10-21 07:04:48 51°12.831 2°50.508 -999 329 12.7 100050 100
2005-10-21 07:04:53 51°12.823 2°50.481 -999 326 12.7 100040 100
2005-10-21 07:04:57 51°12.816 2°50.459 -999 333 12.7 100040 100
2005-10-21 07:05:03 51°12.805 2°50.427 -999 327 12.7 100050 100
2005-10-21 07:05:08 51°12.796 2°50.4 -999 328 12.7 100050 100
2005-10-21 07:05:13 51°12.787 2°50.373 -999 327 12.7 100050 100
2005-10-21 07:05:17 51°12.78 2°50.351 -999 333 12.7 100050 100
2005-10-21 07:05:23 51°12.768 2°50.319 -999 331 12.7 100050 100
2005-10-21 07:05:28 51°12.758 2°50.293 -999 331 12.7 100050 100
2005-10-21 07:05:33 51°12.75 2°50.266 -999 331 12.7 100040 100
2005-10-21 07:05:37 51°12.742 2°50.244 -999 328 12.7 100040 100
2005-10-21 07:05:43 51°12.732 2°50.211 -999 331 12.7 100040 100
2005-10-21 07:05:48 51°12.723 2°50.185 -999 326 12.7 100040 100
2005-10-21 07:05:53 51°12.714 2°50.157 -999 324 12.7 100040 100
2005-10-21 07:05:57 51°12.707 2°50.135 -999 323 12.7 100040 100
2005-10-21 07:06:03 51°12.697 2°50.102 -999 320 12.7 100040 100
2005-10-21 07:06:08 51°12.688 2°50.075 -999 331 12.7 100040 100
2005-10-21 07:06:13 51°12.679 2°50.048 -999 322 12.7 100050 100
2005-10-21 07:06:17 51°12.672 2°50.026 -999 325 12.7 100050 100
2005-10-21 07:06:23 51°12.661 2°49.994 -999 324 12.7 100040 100
2005-10-21 07:06:28 51°12.651 2°49.967 -999 327 12.7 100040 100
2005-10-21 07:06:33 51°12.642 2°49.94 -999 332 12.7 100050 100
2005-10-21 07:06:38 51°12.633 2°49.913 -999 327 12.7 100050 100
2005-10-21 07:06:43 51°12.624 2°49.886 -999 329 12.7 100040 100
2005-10-21 07:06:48 51°12.616 2°49.858 -999 327 12.7 100040 100
2005-10-21 07:06:53 51°12.607 2°49.831 -999 327 12.7 100030 100
2005-10-21 07:06:57 51°12.6 2°49.809 -999 324 12.7 100030 100
2005-10-21 07:07:03 51°12.589 2°49.776 -999 325 12.8 100040 100
2005-10-21 07:07:08 51°12.581 2°49.749 -999 322 12.8 100040 100
2005-10-21 07:07:13 51°12.572 2°49.722 -999 329 12.7 100040 100
2005-10-21 07:07:17 51°12.564 2°49.7 -999 328 12.7 100040 100
2005-10-21 07:07:23 51°12.554 2°49.667 -999 321 12.7 100040 100
2005-10-21 07:07:28 51°12.544 2°49.641 -999 330 12.7 100040 100
2005-10-21 07:07:33 51°12.535 2°49.614 -999 328 12.7 100040 100
2005-10-21 07:07:37 51°12.528 2°49.592 -999 326 12.7 100040 100
2005-10-21 07:07:43 51°12.517 2°49.56 -999 328 12.7 100040 100
2005-10-21 07:07:48 51°12.508 2°49.533 -999 325 12.7 100040 100
2005-10-21 07:07:53 51°12.499 2°49.506 -999 325 12.8 100040 100
2005-10-21 07:07:57 51°12.492 2°49.484 -999 324 12.8 100040 100
2005-10-21 07:08:03 51°12.482 2°49.451 -999 331 12.8 100040 100
2005-10-21 07:08:08 51°12.473 2°49.424 -999 325 12.8 100040 100
2005-10-21 07:08:13 51°12.464 2°49.396 -999 327 12.7 100030 100
2005-10-21 07:08:17 51°12.457 2°49.374 -999 332 12.7 100030 100
2005-10-21 07:08:23 51°12.447 2°49.342 -999 331 12.8 100040 100
2005-10-21 07:08:28 51°12.438 2°49.314 -999 328 12.8 100040 100
2005-10-21 07:08:33 51°12.429 2°49.287 -999 329 12.8 100040 100
2005-10-21 07:08:38 51°12.42 2°49.26 -999 335 12.8 100040 100
2005-10-21 07:08:43 51°12.411 2°49.233 -999 331 12.8 100030 100
2005-10-21 07:08:48 51°12.402 2°49.206 -999 327 12.8 100030 100
2005-10-21 07:08:53 51°12.393 2°49.179 -999 332 12.7 100030 100
2005-10-21 07:08:57 51°12.386 2°49.157 -999 330 12.7 100030 100
2005-10-21 07:09:03 51°12.375 2°49.124 -999 333 12.7 100040 100
2005-10-21 07:09:08 51°12.366 2°49.097 -999 328 12.7 100040 100
2005-10-21 07:09:13 51°12.357 2°49.069 -999 326 12.8 100040 100
2005-10-21 07:09:17 51°12.35 2°49.047 -999 332 12.8 100040 100
2005-10-21 07:09:23 51°12.339 2°49.015 -999 326 12.8 100030 100
2005-10-21 07:09:28 51°12.33 2°48.987 -999 321 12.8 100030 100
2005-10-21 07:09:33 51°12.321 2°48.96 -999 328 12.8 100030 100
2005-10-21 07:09:38 51°12.311 2°48.933 -999 330 12.8 100030 100
2005-10-21 07:09:43 51°12.302 2°48.906 -999 329 12.8 100030 100
2005-10-21 07:09:48 51°12.293 2°48.879 -999 331 12.8 100030 100
2005-10-21 07:09:53 51°12.284 2°48.852 -999 329 12.8 100030 100
2005-10-21 07:09:57 51°12.276 2°48.83 -999 330 12.8 100030 100
2005-10-21 07:10:03 51°12.266 2°48.797 -999 332 12.8 100030 100
2005-10-21 07:10:08 51°12.257 2°48.77 -999 330 12.8 100030 100
2005-10-21 07:10:13 51°12.248 2°48.742 -999 327 12.8 100030 100
2005-10-21 07:10:17 51°12.241 2°48.72 -999 325 12.8 100030 100
2005-10-21 07:10:23 51°12.23 2°48.687 -999 326 12.8 100030 100
2005-10-21 07:10:28 51°12.222 2°48.66 -999 327 12.8 100030 100
2005-10-21 07:10:33 51°12.213 2°48.633 -999 324 12.8 100040 100
2005-10-21 07:10:38 51°12.203 2°48.605 -999 318 12.8 100040 100
2005-10-21 07:10:43 51°12.194 2°48.578 -999 330 12.8 100030 100
2005-10-21 07:10:48 51°12.185 2°48.552 -999 323 12.8 100030 100
2005-10-21 07:10:53 51°12.175 2°48.524 -999 325 12.8 100020 100
2005-10-21 07:10:58 51°12.166 2°48.497 -999 326 12.8 100020 100
2005-10-21 07:11:03 51°12.157 2°48.47 -999 324 12.8 100030 100
2005-10-21 07:11:08 51°12.148 2°48.443 -999 335 12.8 100030 100
2005-10-21 07:11:13 51°12.139 2°48.415 -999 333 12.8 100030 100
2005-10-21 07:11:18 51°12.13 2°48.387 -999 327 12.8 100030 100
2005-10-21 07:11:23 51°12.121 2°48.36 -999 331 12.8 100030 100
2005-10-21 07:11:28 51°12.113 2°48.332 -999 332 12.8 100030 100
2005-10-21 07:11:33 51°12.104 2°48.305 -999 327 12.8 100020 100
2005-10-21 07:11:38 51°12.095 2°48.277 -999 334 12.8 100020 100
2005-10-21 07:11:43 51°12.086 2°48.25 -999 335 12.9 100020 100
2005-10-21 07:11:48 51°12.077 2°48.222 -999 335 12.9 100020 100
2005-10-21 07:11:53 51°12.068 2°48.195 -999 330 12.9 100020 100
2005-10-21 07:11:58 51°12.059 2°48.168 -999 333 12.9 100020 100
2005-10-21 07:12:03 51°12.049 2°48.141 -999 331 12.9 100020 100
2005-10-21 07:12:08 51°12.04 2°48.113 -999 329 12.9 100020 100
2005-10-21 07:12:13 51°12.031 2°48.086 -999 330 12.9 100030 100
2005-10-21 07:12:17 51°12.025 2°48.063 -999 322 12.9 100030 100
2005-10-21 07:12:23 51°12.014 2°48.03 -999 323 12.9 100030 100
2005-10-21 07:12:28 51°12.006 2°48.002 -999 329 12.9 100030 100
2005-10-21 07:12:33 51°11.997 2°47.975 -999 333 12.9 100020 100
2005-10-21 07:12:37 51°11.991 2°47.952 -999 331 12.9 100020 100
2005-10-21 07:12:43 51°11.981 2°47.918 -999 328 12.9 100020 100
2005-10-21 07:12:48 51°11.973 2°47.89 -999 326 12.9 100020 100
2005-10-21 07:12:53 51°11.965 2°47.862 -999 328 12.9 100020 100
2005-10-21 07:12:57 51°11.958 2°47.84 -999 331 12.9 100020 100
2005-10-21 07:13:03 51°11.948 2°47.806 -999 330 12.9 100030 100
2005-10-21 07:13:08 51°11.94 2°47.778 -999 329 12.9 100030 100
2005-10-21 07:13:13 51°11.931 2°47.75 -999 328 12.9 100020 100
2005-10-21 07:13:17 51°11.925 2°47.728 -999 321 12.9 100020 100
2005-10-21 07:13:23 51°11.915 2°47.694 -999 324 12.9 100020 100
2005-10-21 07:13:28 51°11.906 2°47.666 -999 318 12.9 100020 100
2005-10-21 07:13:33 51°11.898 2°47.638 -999 316 12.9 100030 100
2005-10-21 07:13:37 51°11.892 2°47.615 -999 326 12.9 100030 100
2005-10-21 07:13:43 51°11.882 2°47.582 -999 321 12.9 100020 100
2005-10-21 07:13:48 51°11.874 2°47.554 -999 329 12.9 100020 100
2005-10-21 07:13:53 51°11.865 2°47.526 -999 329 12.9 100030 100
2005-10-21 07:13:57 51°11.858 2°47.504 -999 327 12.9 100030 100
2005-10-21 07:14:03 51°11.848 2°47.47 -999 334 12.9 100020 100
2005-10-21 07:14:08 51°11.839 2°47.442 -999 331 12.9 100020 100
2005-10-21 07:14:13 51°11.831 2°47.414 -999 330 12.9 100020 100
2005-10-21 07:14:17 51°11.824 2°47.392 -999 327 12.9 100020 100
2005-10-21 07:14:23 51°11.815 2°47.358 -999 325 12.9 100020 100
2005-10-21 07:14:28 51°11.806 2°47.329 -999 320 12.9 100020 100
2005-10-21 07:14:33 51°11.798 2°47.301 -999 323 12.9 100030 100
2005-10-21 07:14:37 51°11.792 2°47.279 -999 324 12.9 100030 100
2005-10-21 07:14:43 51°11.782 2°47.245 -999 324 12.9 100020 100
2005-10-21 07:14:48 51°11.774 2°47.217 -999 322 12.9 100020 100
2005-10-21 07:14:53 51°11.766 2°47.189 -999 320 12.9 100020 100
2005-10-21 07:14:57 51°11.76 2°47.166 -999 324 12.9 100020 100
2005-10-21 07:15:03 51°11.75 2°47.132 -999 41 12.9 100020 100
2005-10-21 07:15:08 51°11.743 2°47.103 -999 319 12.9 100020 100
2005-10-21 07:15:13 51°11.736 2°47.075 -999 320 12.9 100020 100
2005-10-21 07:15:18 51°11.729 2°47.046 -999 321 12.9 100020 100
2005-10-21 07:15:23 51°11.722 2°47.016 -999 320 13 100030 100
2005-10-21 07:15:28 51°11.715 2°46.988 -999 323 13 100030 100
2005-10-21 07:15:33 51°11.708 2°46.959 -999 326 13 100020 100
2005-10-21 07:15:38 51°11.701 2°46.93 -999 326 13 100020 100
2005-10-21 07:15:41 51°11.697 2°46.913 -999 328 13 100020 100
2005-10-21 07:15:48 51°11.687 2°46.872 -999 324 13 100020 100
2005-10-21 07:15:53 51°11.679 2°46.843 -999 324 13 100020 100
2005-10-21 07:15:58 51°11.672 2°46.815 -999 328 13 100020 100
2005-10-21 07:16:03 51°11.664 2°46.786 -999 325 12.9 100030 100
2005-10-21 07:16:08 51°11.657 2°46.757 -999 324 12.9 100030 100
2005-10-21 07:16:13 51°11.649 2°46.729 -999 328 13 100030 100
2005-10-21 07:16:18 51°11.642 2°46.7 -999 324 13 100030 100
2005-10-21 07:16:23 51°11.634 2°46.671 -999 323 13 100030 100
2005-10-21 07:16:28 51°11.627 2°46.642 -999 326 13 100030 100
2005-10-21 07:16:33 51°11.62 2°46.613 -999 318 13 100030 100
2005-10-21 07:16:38 51°11.613 2°46.584 -999 327 13 100030 100
2005-10-21 07:16:43 51°11.606 2°46.555 -999 322 13 100020 100
2005-10-21 07:16:48 51°11.599 2°46.525 -999 320 13 100020 100
2005-10-21 07:16:53 51°11.592 2°46.496 -999 327 13 100030 100
2005-10-21 07:16:57 51°11.587 2°46.473 -999 325 13 100030 100
2005-10-21 07:17:03 51°11.578 2°46.438 -999 328 12.9 100030 100
2005-10-21 07:17:08 51°11.571 2°46.409 -999 326 12.9 100030 100
2005-10-21 07:17:13 51°11.564 2°46.38 -999 320 12.9 100030 100
2005-10-21 07:17:17 51°11.558 2°46.357 -999 318 12.9 100030 100
2005-10-21 07:17:23 51°11.549 2°46.322 -999 322 12.9 100030 100
2005-10-21 07:17:28 51°11.542 2°46.293 -999 327 12.9 100030 100
2005-10-21 07:17:33 51°11.535 2°46.264 -999 326 12.9 100020 100
2005-10-21 07:17:37 51°11.529 2°46.241 -999 322 12.9 100020 100
2005-10-21 07:17:43 51°11.52 2°46.206 -999 323 12.9 100020 100
2005-10-21 07:17:48 51°11.513 2°46.177 -999 326 12.9 100020 100
2005-10-21 07:17:53 51°11.506 2°46.148 -999 321 12.9 100020 100
2005-10-21 07:17:57 51°11.5 2°46.125 -999 323 12.9 100020 100
2005-10-21 07:18:01 51°11.494 2°46.102 -999 319 12.9 100030 100
2005-10-21 07:18:08 51°11.485 2°46.061 -999 322 12.9 100030 100
2005-10-21 07:18:13 51°11.479 2°46.032 -999 327 12.9 100030 100
2005-10-21 07:18:17 51°11.474 2°46.008 -999 326 12.9 100030 100
2005-10-21 07:18:23 51°11.467 2°45.972 -999 324 12.9 100030 100
2005-10-21 07:18:28 51°11.461 2°45.943 -999 319 12.9 100030 100
2005-10-21 07:18:33 51°11.456 2°45.913 -999 316 12.9 100030 100
2005-10-21 07:18:38 51°11.45 2°45.883 -999 318 12.9 100030 100
2005-10-21 07:18:43 51°11.444 2°45.853 -999 321 12.9 100030 100
2005-10-21 07:18:48 51°11.438 2°45.823 -999 323 12.9 100030 100
2005-10-21 07:18:53 51°11.432 2°45.794 -999 323 12.9 100030 100
2005-10-21 07:18:57 51°11.427 2°45.77 -999 323 12.9 100030 100
2005-10-21 07:19:03 51°11.42 2°45.734 -999 321 13 100030 100
2005-10-21 07:19:08 51°11.414 2°45.705 -999 322 13 100030 100
2005-10-21 07:19:13 51°11.408 2°45.675 -999 321 13 100030 100
2005-10-21 07:19:17 51°11.403 2°45.651 -999 323 13 100030 100
2005-10-21 07:19:23 51°11.396 2°45.615 -999 319 12.9 100030 100
2005-10-21 07:19:28 51°11.39 2°45.586 -999 319 12.9 100030 100
2005-10-21 07:19:33 51°11.384 2°45.556 -999 324 13 100030 100
2005-10-21 07:19:38 51°11.378 2°45.526 -999 326 13 100030 100
2005-10-21 07:19:43 51°11.372 2°45.496 -999 315 13 100030 100
2005-10-21 07:19:48 51°11.366 2°45.466 -999 315 13 100030 100
2005-10-21 07:19:53 51°11.36 2°45.437 -999 320 13 100020 100
2005-10-21 07:19:57 51°11.355 2°45.413 -999 325 13 100020 100
2005-10-21 07:20:03 51°11.348 2°45.377 -999 323 13 100030 100
2005-10-21 07:20:08 51°11.342 2°45.347 -999 319 13 100030 100
2005-10-21 07:20:13 51°11.337 2°45.317 -999 322 13 100030 100
2005-10-21 07:20:17 51°11.332 2°45.293 -999 321 13 100030 100
2005-10-21 07:20:23 51°11.325 2°45.257 -999 321 13 100030 100
2005-10-21 07:20:28 51°11.319 2°45.227 -999 322 13 100030 100
2005-10-21 07:20:33 51°11.313 2°45.198 -999 320 13 100030 100
2005-10-21 07:20:38 51°11.307 2°45.168 -999 323 13 100030 100
2005-10-21 07:20:43 51°11.302 2°45.138 -999 324 13 100020 100
2005-10-21 07:20:48 51°11.296 2°45.108 -999 318 13 100020 100
2005-10-21 07:20:53 51°11.29 2°45.078 -999 326 13 100030 100
2005-10-21 07:20:57 51°11.285 2°45.054 -999 327 13 100030 100
2005-10-21 07:21:03 51°11.278 2°45.019 -999 323 13 100020 100
2005-10-21 07:21:08 51°11.272 2°44.989 -999 324 13 100020 100
2005-10-21 07:21:13 51°11.266 2°44.959 -999 324 13 100020 100
2005-10-21 07:21:17 51°11.262 2°44.935 -999 324 13 100020 100
2005-10-21 07:21:23 51°11.255 2°44.899 -999 320 13 100020 100
2005-10-21 07:21:28 51°11.249 2°44.869 -999 322 13 100020 100
2005-10-21 07:21:33 51°11.244 2°44.839 -999 320 13 100020 100
2005-10-21 07:21:37 51°11.239 2°44.816 -999 320 13 100020 100
2005-10-21 07:21:43 51°11.232 2°44.78 -999 320 13 100020 100
2005-10-21 07:21:48 51°11.226 2°44.75 -999 320 13 100020 100
2005-10-21 07:21:53 51°11.22 2°44.72 -999 323 13 100020 100
2005-10-21 07:21:57 51°11.216 2°44.696 -999 322 13 100020 100
2005-10-21 07:22:01 51°11.211 2°44.672 -999 322 13 100020 100
2005-10-21 07:22:08 51°11.204 2°44.63 -999 320 13 100020 100
2005-10-21 07:22:13 51°11.199 2°44.6 -999 318 13 100010 100
2005-10-21 07:22:17 51°11.195 2°44.575 -999 318 13 100010 100
2005-10-21 07:22:23 51°11.189 2°44.539 -999 320 13 100020 100
2005-10-21 07:22:28 51°11.184 2°44.509 -999 226 13 100020 100
2005-10-21 07:22:33 51°11.179 2°44.479 -999 315 13 100010 100
2005-10-21 07:22:38 51°11.174 2°44.448 -999 320 13 100010 100
2005-10-21 07:22:43 51°11.168 2°44.418 -999 324 13 100010 100
2005-10-21 07:22:48 51°11.163 2°44.388 -999 316 13 100010 100
2005-10-21 07:22:53 51°11.158 2°44.358 -999 228 13 100020 100
2005-10-21 07:22:57 51°11.154 2°44.334 -999 316 13 100020 100
2005-10-21 07:23:03 51°11.148 2°44.298 -999 320 13 100020 100
2005-10-21 07:23:08 51°11.143 2°44.267 -999 320 13 100020 100
2005-10-21 07:23:13 51°11.138 2°44.237 -999 40 13 100020 100
2005-10-21 07:23:17 51°11.134 2°44.213 -999 315 13 100020 100
2005-10-21 07:23:23 51°11.128 2°44.176 -999 317 13 100010 100
2005-10-21 07:23:28 51°11.123 2°44.146 -999 318 13 100010 100
2005-10-21 07:23:33 51°11.118 2°44.116 -999 44 13 100020 100
2005-10-21 07:23:38 51°11.113 2°44.086 -999 312 13 100020 100
2005-10-21 07:23:43 51°11.108 2°44.055 -999 43 13 100010 100
2005-10-21 07:23:48 51°11.103 2°44.025 -999 40 13 100010 100
2005-10-21 07:23:53 51°11.098 2°43.995 -999 314 13 100010 100
2005-10-21 07:23:57 51°11.094 2°43.971 -999 39 13 100010 100
2005-10-21 07:24:03 51°11.088 2°43.935 -999 227 13 100010 100
2005-10-21 07:24:08 51°11.082 2°43.905 -999 319 13 100010 100
2005-10-21 07:24:13 51°11.077 2°43.875 -999 320 13 100010 100
2005-10-21 07:24:17 51°11.073 2°43.85 -999 318 13 100010 100
2005-10-21 07:24:23 51°11.067 2°43.814 -999 320 13 100010 100
2005-10-21 07:24:28 51°11.062 2°43.784 -999 40 13 100010 100
2005-10-21 07:24:33 51°11.057 2°43.754 -999 314 13 100010 100
2005-10-21 07:24:37 51°11.053 2°43.73 -999 40 13 100010 100
2005-10-21 07:24:43 51°11.047 2°43.694 -999 319 13 100010 100
2005-10-21 07:24:48 51°11.042 2°43.663 -999 316 13 100010 100
2005-10-21 07:24:53 51°11.036 2°43.633 -999 316 13 100010 100
2005-10-21 07:24:57 51°11.032 2°43.609 -999 318 13 100010 100
2005-10-21 07:25:03 51°11.026 2°43.573 -999 228 13 100000 100
2005-10-21 07:25:08 51°11.021 2°43.543 -999 41 13 100000 100
2005-10-21 07:25:13 51°11.016 2°43.513 -999 313 13 100010 100
2005-10-21 07:25:17 51°11.012 2°43.488 -999 314 13 100010 100
2005-10-21 07:25:23 51°11.006 2°43.452 -999 313 13 100000 100
2005-10-21 07:25:28 51°11.001 2°43.422 -999 318 13 100000 100
2005-10-21 07:25:33 51°10.996 2°43.392 -999 324 13 100010 100
2005-10-21 07:25:37 51°10.992 2°43.368 -999 316 13 100010 100
2005-10-21 07:25:43 51°10.986 2°43.332 -999 314 13 100010 100
2005-10-21 07:25:48 51°10.981 2°43.302 -999 319 13 100010 100
2005-10-21 07:25:53 51°10.976 2°43.272 -999 317 13 100010 100
2005-10-21 07:25:58 51°10.971 2°43.242 -999 320 13 100010 100
2005-10-21 07:26:03 51°10.966 2°43.211 -999 314 13 100010 100
2005-10-21 07:26:08 51°10.961 2°43.181 -999 310 13 100010 100
2005-10-21 07:26:13 51°10.956 2°43.151 -999 228 13 100000 100
2005-10-21 07:26:17 51°10.952 2°43.127 -999 314 13 100000 100
2005-10-21 07:26:23 51°10.946 2°43.091 -999 313 13.1 100000 100
2005-10-21 07:26:28 51°10.941 2°43.061 -999 227 13.1 100000 100
2005-10-21 07:26:33 51°10.936 2°43.031 -999 231 13.1 100000 100
2005-10-21 07:26:38 51°10.931 2°43.001 -999 319 13.1 100000 100
2005-10-21 07:26:43 51°10.926 2°42.971 -999 233 13.1 100000 100
2005-10-21 07:26:48 51°10.921 2°42.941 -999 314 13.1 100000 100
2005-10-21 07:26:53 51°10.916 2°42.911 -999 318 13.1 100000 100
2005-10-21 07:26:57 51°10.912 2°42.887 -999 226 13.1 100000 100
2005-10-21 07:27:01 51°10.908 2°42.863 -999 313 13.1 100000 100
2005-10-21 07:27:08 51°10.9 2°42.82 -999 315 13.1 100000 100
2005-10-21 07:27:13 51°10.895 2°42.79 -999 40 13.1 100000 100
2005-10-21 07:27:17 51°10.891 2°42.766 -999 316 13.1 100000 100
2005-10-21 07:27:23 51°10.885 2°42.73 -999 42 13.1 100010 100
2005-10-21 07:27:28 51°10.88 2°42.7 -999 316 13.1 100010 100
2005-10-21 07:27:33 51°10.875 2°42.669 -999 316 13.1 99990 100
2005-10-21 07:27:38 51°10.87 2°42.639 -999 38 13.1 99990 100
2005-10-21 07:27:43 51°10.865 2°42.609 -999 228 13.1 100000 100
2005-10-21 07:27:48 51°10.86 2°42.579 -999 233 13.1 100000 100
2005-10-21 07:27:53 51°10.855 2°42.549 -999 314 13.1 100000 100
2005-10-21 07:27:58 51°10.85 2°42.519 -999 41 13.1 100000 100
2005-10-21 07:28:03 51°10.845 2°42.488 -999 313 13.1 100000 100
2005-10-21 07:28:08 51°10.84 2°42.458 -999 230 13.1 100000 100
2005-10-21 07:28:13 51°10.835 2°42.428 -999 227 13.1 100000 100
2005-10-21 07:28:17 51°10.831 2°42.404 -999 228 13.1 100000 100
2005-10-21 07:28:23 51°10.825 2°42.368 -999 320 13.1 100000 100
2005-10-21 07:28:28 51°10.82 2°42.337 -999 313 13.1 100000 100
2005-10-21 07:28:33 51°10.815 2°42.307 -999 43 13.1 100000 100
2005-10-21 07:28:37 51°10.811 2°42.283 -999 228 13.1 100000 100
2005-10-21 07:28:43 51°10.805 2°42.247 -999 316 13.1 100000 100
2005-10-21 07:28:48 51°10.8 2°42.217 -999 314 13.1 100000 100
2005-10-21 07:28:53 51°10.795 2°42.186 -999 313 13.1 100000 100
2005-10-21 07:28:58 51°10.79 2°42.156 -999 313 13.1 100000 100
2005-10-21 07:29:03 51°10.785 2°42.126 -999 315 13.1 100000 100
2005-10-21 07:29:08 51°10.781 2°42.096 -999 316 13.1 100000 100
2005-10-21 07:29:13 51°10.776 2°42.066 -999 229 13.1 100000 100
2005-10-21 07:29:18 51°10.771 2°42.035 -999 312 13.1 100000 100
2005-10-21 07:29:23 51°10.766 2°42.005 -999 314 13.1 99990 100
2005-10-21 07:29:28 51°10.761 2°41.975 -999 310 13.1 99990 100
2005-10-21 07:29:33 51°10.756 2°41.944 -999 229 13.1 99990 100
2005-10-21 07:29:37 51°10.752 2°41.92 -999 313 13.1 99990 100
2005-10-21 07:29:43 51°10.746 2°41.884 -999 319 13.1 100000 100
2005-10-21 07:29:48 51°10.741 2°41.853 -999 315 13.1 100000 100
2005-10-21 07:29:53 51°10.736 2°41.824 -999 315 13.1 99990 100
2005-10-21 07:29:57 51°10.732 2°41.799 -999 316 13.1 99990 100
2005-10-21 07:30:03 51°10.726 2°41.763 -999 317 13.1 99990 100
2005-10-21 07:30:08 51°10.721 2°41.733 -999 316 13.1 99990 100
2005-10-21 07:30:13 51°10.716 2°41.703 -999 229 13.1 100000 100
2005-10-21 07:30:17 51°10.713 2°41.678 -999 41 13.1 100000 100
2005-10-21 07:30:23 51°10.707 2°41.642 -999 226 13.1 100000 100
2005-10-21 07:30:28 51°10.702 2°41.612 -999 44 13.1 100000 100
2005-10-21 07:30:33 51°10.697 2°41.581 -999 306 13.1 99990 100
2005-10-21 07:30:38 51°10.692 2°41.551 -999 309 13.1 99990 100
2005-10-21 07:30:43 51°10.688 2°41.52 -999 315 13.1 99990 100
2005-10-21 07:30:48 51°10.683 2°41.49 -999 227 13.1 99990 100
2005-10-21 07:30:53 51°10.678 2°41.46 -999 314 13.1 99980 100
2005-10-21 07:30:57 51°10.674 2°41.435 -999 308 13.1 99980 100
2005-10-21 07:31:03 51°10.668 2°41.399 -999 41 13.1 99990 100
2005-10-21 07:31:08 51°10.663 2°41.369 -999 316 13.1 99990 100
2005-10-21 07:31:13 51°10.658 2°41.338 -999 315 13.1 99990 100
2005-10-21 07:31:18 51°10.653 2°41.307 -999 317 13.1 99990 100
2005-10-21 07:31:23 51°10.649 2°41.277 -999 321 13.1 99980 100
2005-10-21 07:31:28 51°10.644 2°41.247 -999 231 13.1 99980 100
2005-10-21 07:31:33 51°10.639 2°41.217 -999 310 13.1 99990 100
2005-10-21 07:31:38 51°10.634 2°41.186 -999 308 13.1 99990 100
2005-10-21 07:31:43 51°10.629 2°41.156 -999 310 13.1 99990 100
2005-10-21 07:31:48 51°10.624 2°41.126 -999 313 13.1 99990 100
2005-10-21 07:31:53 51°10.619 2°41.095 -999 232 13.1 99990 100
2005-10-21 07:31:58 51°10.614 2°41.065 -999 312 13.1 99990 100
2005-10-21 07:32:03 51°10.609 2°41.034 -999 315 13.1 99980 100
2005-10-21 07:32:08 51°10.604 2°41.004 -999 232 13.1 99980 100
2005-10-21 07:32:13 51°10.599 2°40.974 -999 309 13.1 99990 100
2005-10-21 07:32:18 51°10.595 2°40.944 -999 314 13.1 99990 100
2005-10-21 07:32:23 51°10.59 2°40.913 -999 313 13.1 99980 100
2005-10-21 07:32:28 51°10.585 2°40.883 -999 227 13.1 99980 100
2005-10-21 07:32:33 51°10.58 2°40.852 -999 314 13.1 99990 100
2005-10-21 07:32:37 51°10.576 2°40.828 -999 316 13.1 99990 100
2005-10-21 07:32:43 51°10.57 2°40.792 -999 318 13.1 99980 100
2005-10-21 07:32:48 51°10.565 2°40.761 -999 42 13.1 99980 100
2005-10-21 07:32:53 51°10.56 2°40.731 -999 318 13.1 99980 100
2005-10-21 07:32:57 51°10.556 2°40.706 -999 316 13.1 99980 100
2005-10-21 07:33:03 51°10.55 2°40.67 -999 230 13.1 99980 100
2005-10-21 07:33:08 51°10.545 2°40.64 -999 312 13.1 99980 100
2005-10-21 07:33:13 51°10.54 2°40.609 -999 313 13.1 99980 100
2005-10-21 07:33:18 51°10.536 2°40.579 -999 312 13.1 99980 100
2005-10-21 07:33:23 51°10.531 2°40.548 -999 228 13.1 99990 100
2005-10-21 07:33:28 51°10.526 2°40.518 -999 314 13.1 99990 100
2005-10-21 07:33:33 51°10.521 2°40.487 -999 228 13.1 99980 100
2005-10-21 07:33:38 51°10.517 2°40.456 -999 314 13.1 99980 100
2005-10-21 07:33:43 51°10.512 2°40.426 -999 306 13.1 99980 100
2005-10-21 07:33:48 51°10.507 2°40.395 -999 313 13.1 99980 100
2005-10-21 07:33:53 51°10.503 2°40.365 -999 312 13.1 99990 100
2005-10-21 07:33:58 51°10.498 2°40.334 -999 43 13.1 99990 100
2005-10-21 07:34:03 51°10.493 2°40.304 -999 229 13.1 99980 100
2005-10-21 07:34:08 51°10.488 2°40.273 -999 227 13.1 99980 100
2005-10-21 07:34:13 51°10.483 2°40.243 -999 310 13.1 99980 100
2005-10-21 07:34:17 51°10.479 2°40.219 -999 313 13.1 99980 100
2005-10-21 07:34:23 51°10.473 2°40.182 -999 315 13.1 99980 100
2005-10-21 07:34:28 51°10.468 2°40.152 -999 314 13.1 99980 100
2005-10-21 07:34:33 51°10.463 2°40.121 -999 229 13.1 99990 100
2005-10-21 07:34:38 51°10.458 2°40.091 -999 313 13.1 99990 100
2005-10-21 07:34:43 51°10.454 2°40.06 -999 314 13.1 99980 100
2005-10-21 07:34:48 51°10.449 2°40.029 -999 227 13.1 99980 100
2005-10-21 07:34:53 51°10.444 2°39.999 -999 316 13.1 99990 100
2005-10-21 07:34:57 51°10.441 2°39.974 -999 314 13.1 99990 100
2005-10-21 07:35:03 51°10.435 2°39.938 -999 312 13.2 99980 100
2005-10-21 07:35:08 51°10.43 2°39.907 -999 43 13.2 99980 100
2005-10-21 07:35:13 51°10.425 2°39.876 -999 313 13.1 99980 100
2005-10-21 07:35:17 51°10.422 2°39.852 -999 315 13.1 99980 100
2005-10-21 07:35:23 51°10.416 2°39.815 -999 313 13.1 99980 100
2005-10-21 07:35:28 51°10.412 2°39.785 -999 227 13.1 99980 100
2005-10-21 07:35:33 51°10.407 2°39.754 -999 309 13.1 99980 100
2005-10-21 07:35:37 51°10.403 2°39.73 -999 312 13.1 99980 100
2005-10-21 07:35:43 51°10.397 2°39.693 -999 229 13.1 99980 100
2005-10-21 07:35:48 51°10.393 2°39.662 -999 313 13.1 99980 100
2005-10-21 07:35:53 51°10.388 2°39.632 -999 312 13.1 99980 100
2005-10-21 07:35:57 51°10.384 2°39.607 -999 312 13.1 99980 100
2005-10-21 07:36:03 51°10.378 2°39.57 -999 229 13.2 99980 100
2005-10-21 07:36:08 51°10.373 2°39.54 -999 314 13.2 99980 100
2005-10-21 07:36:13 51°10.369 2°39.509 -999 307 13.2 99980 100
2005-10-21 07:36:17 51°10.365 2°39.485 -999 309 13.2 99980 100
2005-10-21 07:36:23 51°10.359 2°39.448 -999 311 13.2 99980 100
2005-10-21 07:36:28 51°10.354 2°39.417 -999 311 13.2 99980 100
2005-10-21 07:36:33 51°10.349 2°39.387 -999 314 13.1 99980 100
2005-10-21 07:36:38 51°10.344 2°39.356 -999 311 13.1 99980 100
2005-10-21 07:36:43 51°10.34 2°39.326 -999 319 13.1 99970 100
2005-10-21 07:36:48 51°10.335 2°39.295 -999 39 13.1 99970 100
2005-10-21 07:36:53 51°10.33 2°39.264 -999 310 13.1 99980 100
2005-10-21 07:36:57 51°10.327 2°39.24 -999 313 13.1 99980 100
2005-10-21 07:37:03 51°10.321 2°39.203 -999 312 13.1 99970 100
2005-10-21 07:37:08 51°10.316 2°39.173 -999 306 13.1 99970 100
2005-10-21 07:37:13 51°10.312 2°39.142 -999 312 13.1 99970 100
2005-10-21 07:37:17 51°10.308 2°39.118 -999 309 13.1 99970 100
2005-10-21 07:37:23 51°10.302 2°39.081 -999 313 13.1 99970 100
2005-10-21 07:37:28 51°10.298 2°39.05 -999 313 13.1 99970 100
2005-10-21 07:37:33 51°10.293 2°39.02 -999 310 13.1 99980 100
2005-10-21 07:37:38 51°10.288 2°38.989 -999 309 13.1 99980 100
2005-10-21 07:37:43 51°10.283 2°38.958 -999 310 13.1 99970 100
2005-10-21 07:37:48 51°10.279 2°38.928 -999 311 13.1 99970 100
2005-10-21 07:37:53 51°10.274 2°38.897 -999 228 13.2 99970 100
2005-10-21 07:37:57 51°10.27 2°38.873 -999 307 13.2 99970 100
2005-10-21 07:38:03 51°10.265 2°38.836 -999 314 13.2 99970 100
2005-10-21 07:38:08 51°10.26 2°38.805 -999 313 13.2 99970 100
2005-10-21 07:38:13 51°10.255 2°38.775 -999 306 13.2 99970 100
2005-10-21 07:38:17 51°10.252 2°38.75 -999 315 13.2 99970 100
2005-10-21 07:38:23 51°10.246 2°38.713 -999 314 13.2 99970 100
2005-10-21 07:38:28 51°10.241 2°38.683 -999 313 13.2 99970 100
2005-10-21 07:38:33 51°10.236 2°38.652 -999 312 13.2 99970 100
2005-10-21 07:38:37 51°10.232 2°38.628 -999 310 13.2 99970 100
2005-10-21 07:38:43 51°10.227 2°38.591 -999 311 13.2 99970 100
2005-10-21 07:38:48 51°10.222 2°38.561 -999 313 13.2 99970 100
2005-10-21 07:38:53 51°10.217 2°38.53 -999 315 13.2 99970 100
2005-10-21 07:38:58 51°10.212 2°38.499 -999 314 13.2 99970 100
2005-10-21 07:39:03 51°10.208 2°38.469 -999 311 13.2 99970 100
2005-10-21 07:39:08 51°10.203 2°38.438 -999 307 13.2 99970 100
2005-10-21 07:39:13 51°10.198 2°38.408 -999 313 13.2 99970 100
2005-10-21 07:39:18 51°10.193 2°38.377 -999 42 13.2 99970 100
2005-10-21 07:39:23 51°10.189 2°38.347 -999 229 13.2 99980 100
2005-10-21 07:39:28 51°10.184 2°38.316 -999 311 13.2 99980 100
2005-10-21 07:39:33 51°10.179 2°38.285 -999 305 13.2 99970 100
2005-10-21 07:39:37 51°10.176 2°38.261 -999 303 13.2 99970 100
2005-10-21 07:39:43 51°10.17 2°38.225 -999 313 13.2 99970 100
2005-10-21 07:39:48 51°10.165 2°38.194 -999 312 13.2 99970 100
2005-10-21 07:39:53 51°10.161 2°38.163 -999 311 13.2 99980 100
2005-10-21 07:39:58 51°10.156 2°38.133 -999 230 13.2 99980 100
2005-10-21 07:40:03 51°10.151 2°38.102 -999 311 13.2 99970 100
2005-10-21 07:40:08 51°10.146 2°38.072 -999 307 13.2 99970 100
2005-10-21 07:40:13 51°10.142 2°38.041 -999 309 13.2 99970 100
2005-10-21 07:40:18 51°10.137 2°38.011 -999 311 13.2 99970 100
2005-10-21 07:40:23 51°10.133 2°37.98 -999 308 13.2 99970 100
2005-10-21 07:40:28 51°10.128 2°37.95 -999 308 13.2 99970 100
2005-10-21 07:40:33 51°10.123 2°37.919 -999 313 13.2 99970 100
2005-10-21 07:40:37 51°10.119 2°37.895 -999 311 13.2 99970 100
2005-10-21 07:40:43 51°10.114 2°37.858 -999 314 13.2 99970 100
2005-10-21 07:40:48 51°10.109 2°37.828 -999 309 13.2 99970 100
2005-10-21 07:40:53 51°10.105 2°37.797 -999 306 13.2 99970 100
2005-10-21 07:40:57 51°10.101 2°37.773 -999 309 13.2 99970 100
2005-10-21 07:41:03 51°10.095 2°37.736 -999 305 13.2 99970 100
2005-10-21 07:41:08 51°10.09 2°37.706 -999 317 13.2 99970 100
2005-10-21 07:41:13 51°10.085 2°37.675 -999 310 13.2 99970 100
2005-10-21 07:41:17 51°10.082 2°37.651 -999 307 13.2 99970 100
2005-10-21 07:41:23 51°10.076 2°37.614 -999 308 13.3 99970 100
2005-10-21 07:41:28 51°10.071 2°37.584 -999 311 13.3 99970 100
2005-10-21 07:41:33 51°10.067 2°37.554 -999 307 13.2 99980 100
2005-10-21 07:41:38 51°10.062 2°37.523 -999 307 13.2 99980 100
2005-10-21 07:41:43 51°10.057 2°37.493 -999 311 13.2 99970 100
2005-10-21 07:41:48 51°10.053 2°37.462 -999 315 13.2 99970 100
2005-10-21 07:41:53 51°10.048 2°37.432 -999 309 13.2 99970 100
2005-10-21 07:41:57 51°10.044 2°37.407 -999 315 13.2 99970 100
2005-10-21 07:42:03 51°10.038 2°37.371 -999 311 13.2 99970 100
2005-10-21 07:42:08 51°10.034 2°37.34 -999 310 13.2 99970 100
2005-10-21 07:42:13 51°10.029 2°37.31 -999 314 13.2 99970 100
2005-10-21 07:42:17 51°10.026 2°37.285 -999 229 13.2 99970 100
2005-10-21 07:42:23 51°10.02 2°37.249 -999 311 13.2 99970 100
2005-10-21 07:42:28 51°10.015 2°37.218 -999 313 13.2 99970 100
2005-10-21 07:42:33 51°10.011 2°37.188 -999 311 13.3 99970 100
2005-10-21 07:42:37 51°10.007 2°37.163 -999 306 13.3 99970 100
2005-10-21 07:42:43 51°10.001 2°37.126 -999 226 13.3 99970 100
2005-10-21 07:42:48 51°9.997 2°37.096 -999 317 13.3 99970 100
2005-10-21 07:42:53 51°9.993 2°37.065 -999 314 13.3 99960 100
2005-10-21 07:42:57 51°9.99 2°37.04 -999 310 13.3 99960 100
2005-10-21 07:43:03 51°9.987 2°37.003 -999 303 13.3 99960 100
2005-10-21 07:43:08 51°9.986 2°36.972 -999 300 13.3 99960 100
2005-10-21 07:43:13 51°9.984 2°36.94 -999 304 13.3 99970 100
2005-10-21 07:43:17 51°9.983 2°36.915 -999 304 13.3 99970 100
2005-10-21 07:43:23 51°9.982 2°36.877 -999 302 13.3 99970 100
2005-10-21 07:43:28 51°9.982 2°36.846 -999 307 13.3 99970 100
2005-10-21 07:43:33 51°9.982 2°36.814 -999 307 13.3 99970 100
2005-10-21 07:43:38 51°9.982 2°36.783 -999 303 13.3 99970 100
2005-10-21 07:43:43 51°9.982 2°36.751 -999 297 13.3 99970 100
2005-10-21 07:43:48 51°9.982 2°36.719 -999 303 13.3 99970 100
2005-10-21 07:43:53 51°9.982 2°36.688 -999 309 13.3 99970 100
2005-10-21 07:43:58 51°9.982 2°36.656 -999 301 13.3 99970 100
2005-10-21 07:44:03 51°9.982 2°36.625 -999 304 13.3 99970 100
2005-10-21 07:44:08 51°9.983 2°36.593 -999 301 13.3 99970 100
2005-10-21 07:44:13 51°9.984 2°36.562 -999 300 13.3 99970 100
2005-10-21 07:44:18 51°9.985 2°36.53 -999 304 13.3 99970 100
2005-10-21 07:44:23 51°9.986 2°36.499 -999 305 13.3 99970 100
2005-10-21 07:44:28 51°9.987 2°36.467 -999 301 13.3 99970 100
2005-10-21 07:44:33 51°9.988 2°36.436 -999 292 13.3 99970 100
2005-10-21 07:44:37 51°9.989 2°36.411 -999 299 13.3 99970 100
2005-10-21 07:44:43 51°9.99 2°36.373 -999 305 13.3 99970 100
2005-10-21 07:44:48 51°9.991 2°36.342 -999 300 13.3 99970 100
2005-10-21 07:44:53 51°9.992 2°36.31 -999 298 13.4 99960 100
2005-10-21 07:44:58 51°9.992 2°36.279 -999 299 13.4 99960 100
2005-10-21 07:45:03 51°9.993 2°36.248 -999 294 13.3 99970 100
2005-10-21 07:45:08 51°9.994 2°36.216 -999 299 13.3 99970 100
2005-10-21 07:45:13 51°9.995 2°36.185 -999 303 13.4 99970 100
2005-10-21 07:45:17 51°9.996 2°36.16 -999 301 13.4 99970 100
2005-10-21 07:45:23 51°9.997 2°36.122 -999 296 13.4 99970 100
2005-10-21 07:45:28 51°9.999 2°36.091 -999 289 13.4 99970 100
2005-10-21 07:45:33 51°10.001 2°36.06 -999 297 13.4 99960 100
2005-10-21 07:45:38 51°10.004 2°36.029 -999 294 13.4 99960 100
2005-10-21 07:45:43 51°10.008 2°35.998 -999 287 13.4 99970 100
2005-10-21 07:45:48 51°10.013 2°35.968 -999 292 13.4 99970 100
2005-10-21 07:45:53 51°10.019 2°35.938 -999 291 13.4 99960 100
2005-10-21 07:45:57 51°10.024 2°35.915 -999 286 13.4 99960 100
2005-10-21 07:46:03 51°10.035 2°35.882 -999 281 13.4 99970 100
2005-10-21 07:46:08 51°10.045 2°35.857 -999 270 13.4 99970 100
2005-10-21 07:46:13 51°10.056 2°35.834 -999 256 13.3 99970 100
2005-10-21 07:46:17 51°10.066 2°35.817 -999 244 13.3 99970 100
2005-10-21 07:46:23 51°10.083 2°35.796 -999 220 13.4 99970 100
2005-10-21 07:46:28 51°10.099 2°35.782 -999 208 13.4 99970 100
2005-10-21 07:46:33 51°10.115 2°35.771 -999 92 13.4 99980 100
2005-10-21 07:46:38 51°10.131 2°35.765 -999 95 13.4 99980 100
2005-10-21 07:46:43 51°10.148 2°35.759 -999 130 13.4 99980 100
2005-10-21 07:46:48 51°10.165 2°35.755 -999 136 13.4 99980 100
2005-10-21 07:46:53 51°10.182 2°35.751 -999 119 13.4 99990 100
2005-10-21 07:46:57 51°10.196 2°35.75 -999 124 13.4 99990 100
2005-10-21 07:47:03 51°10.216 2°35.749 -999 103 13.4 99980 100
2005-10-21 07:47:08 51°10.233 2°35.752 -999 110 13.4 99980 100
2005-10-21 07:47:13 51°10.249 2°35.757 -999 105 13.4 99980 100
2005-10-21 07:47:18 51°10.265 2°35.766 -999 105 13.4 99980 100
2005-10-21 07:47:23 51°10.28 2°35.777 -999 90 13.4 99980 100
2005-10-21 07:47:28 51°10.294 2°35.79 -999 92 13.4 99980 100
2005-10-21 07:47:33 51°10.308 2°35.804 -999 97 13.5 99980 100
2005-10-21 07:47:38 51°10.322 2°35.818 -999 91 13.5 99980 100
2005-10-21 07:47:43 51°10.336 2°35.833 -999 87 13.4 99980 100
2005-10-21 07:47:48 51°10.349 2°35.849 -999 91 13.4 99980 100
2005-10-21 07:47:53 51°10.363 2°35.866 -999 90 13.5 99970 100
2005-10-21 07:47:58 51°10.376 2°35.882 -999 86 13.5 99970 100
2005-10-21 07:48:03 51°10.389 2°35.899 -999 90 13.4 99970 100
2005-10-21 07:48:08 51°10.402 2°35.916 -999 96 13.4 99970 100
2005-10-21 07:48:13 51°10.416 2°35.932 -999 91 13.4 99980 100
2005-10-21 07:48:17 51°10.426 2°35.945 -999 92 13.4 99980 100
2005-10-21 07:48:23 51°10.443 2°35.964 -999 94 13.5 99980 100
2005-10-21 07:48:28 51°10.457 2°35.979 -999 99 13.5 99980 100
2005-10-21 07:48:33 51°10.471 2°35.994 -999 95 13.5 99970 100
2005-10-21 07:48:37 51°10.483 2°36.006 -999 84 13.5 99970 100
2005-10-21 07:48:43 51°10.5 2°36.024 -999 97 13.5 99970 100
2005-10-21 07:48:48 51°10.514 2°36.038 -999 97 13.5 99970 100
2005-10-21 07:48:53 51°10.528 2°36.053 -999 85 13.5 99970 100
2005-10-21 07:48:58 51°10.542 2°36.069 -999 87 13.5 99970 100
2005-10-21 07:49:03 51°10.556 2°36.084 -999 94 13.5 99980 100
2005-10-21 07:49:08 51°10.57 2°36.099 -999 90 13.5 99980 100
2005-10-21 07:49:13 51°10.584 2°36.114 -999 98 13.5 99980 100
2005-10-21 07:49:17 51°10.596 2°36.127 -999 103 13.5 99980 100
2005-10-21 07:49:23 51°10.613 2°36.144 -999 94 13.5 99980 100
2005-10-21 07:49:28 51°10.627 2°36.159 -999 83 13.5 99980 100
2005-10-21 07:49:33 51°10.642 2°36.173 -999 96 13.5 99970 100
2005-10-21 07:49:38 51°10.656 2°36.187 -999 100 13.5 99970 100
2005-10-21 07:49:43 51°10.671 2°36.201 -999 101 13.5 99970 100
2005-10-21 07:49:48 51°10.686 2°36.214 -999 95 13.5 99970 100
2005-10-21 07:49:53 51°10.701 2°36.228 -999 85 13.5 99970 100
2005-10-21 07:49:58 51°10.715 2°36.242 -999 91 13.5 99970 100
2005-10-21 07:50:03 51°10.73 2°36.256 -999 91 13.5 99980 100
2005-10-21 07:50:08 51°10.744 2°36.271 -999 91 13.5 99980 100
2005-10-21 07:50:13 51°10.759 2°36.285 -999 98 13.5 99970 100
2005-10-21 07:50:18 51°10.774 2°36.299 -999 104 13.5 99970 100
2005-10-21 07:50:23 51°10.788 2°36.313 -999 98 13.5 99980 100
2005-10-21 07:50:28 51°10.803 2°36.327 -999 94 13.5 99980 100
2005-10-21 07:50:33 51°10.818 2°36.341 -999 94 13.5 99970 100
2005-10-21 07:50:38 51°10.833 2°36.356 -999 85 13.5 99970 100
2005-10-21 07:50:43 51°10.847 2°36.369 -999 89 13.5 99980 100
2005-10-21 07:50:48 51°10.862 2°36.384 -999 90 13.5 99980 100
2005-10-21 07:50:53 51°10.877 2°36.398 -999 101 13.5 99970 100
2005-10-21 07:50:57 51°10.888 2°36.409 -999 102 13.5 99970 100
2005-10-21 07:51:03 51°10.906 2°36.426 -999 97 13.5 99980 100
2005-10-21 07:51:08 51°10.92 2°36.44 -999 95 13.5 99980 100
2005-10-21 07:51:13 51°10.935 2°36.454 -999 83 13.5 99980 100
2005-10-21 07:51:18 51°10.95 2°36.468 -999 98 13.5 99980 100
2005-10-21 07:51:23 51°10.964 2°36.482 -999 100 13.6 99970 100
2005-10-21 07:51:28 51°10.979 2°36.496 -999 95 13.6 99970 100
2005-10-21 07:51:33 51°10.994 2°36.51 -999 96 13.6 99980 100
2005-10-21 07:51:38 51°11.009 2°36.524 -999 96 13.6 99980 100
2005-10-21 07:51:43 51°11.023 2°36.538 -999 92 13.6 99970 100
2005-10-21 07:51:48 51°11.038 2°36.552 -999 95 13.6 99970 100
2005-10-21 07:51:53 51°11.052 2°36.566 -999 99 13.6 99980 100
2005-10-21 07:51:58 51°11.067 2°36.579 -999 100 13.6 99980 100
2005-10-21 07:52:03 51°11.082 2°36.594 -999 95 13.6 99980 100
2005-10-21 07:52:08 51°11.097 2°36.607 -999 99 13.6 99980 100
2005-10-21 07:52:13 51°11.111 2°36.621 -999 97 13.6 99980 100
2005-10-21 07:52:17 51°11.123 2°36.633 -999 98 13.6 99980 100
2005-10-21 07:52:23 51°11.14 2°36.649 -999 93 13.5 99980 100
2005-10-21 07:52:28 51°11.155 2°36.663 -999 95 13.5 99980 100
2005-10-21 07:52:33 51°11.17 2°36.677 -999 96 13.6 99980 100
2005-10-21 07:52:38 51°11.184 2°36.691 -999 96 13.6 99980 100
2005-10-21 07:52:43 51°11.199 2°36.705 -999 97 13.5 99980 100
2005-10-21 07:52:48 51°11.214 2°36.719 -999 93 13.5 99980 100
2005-10-21 07:52:53 51°11.228 2°36.733 -999 99 13.6 99980 100
2005-10-21 07:52:57 51°11.24 2°36.744 -999 104 13.6 99980 100
2005-10-21 07:53:03 51°11.257 2°36.761 -999 95 13.5 99980 100
2005-10-21 07:53:08 51°11.272 2°36.775 -999 85 13.5 99980 100
2005-10-21 07:53:13 51°11.286 2°36.789 -999 90 13.6 99970 100
2005-10-21 07:53:18 51°11.301 2°36.803 -999 94 13.6 99970 100
2005-10-21 07:53:23 51°11.316 2°36.816 -999 96 13.6 99970 100
2005-10-21 07:53:28 51°11.331 2°36.83 -999 97 13.6 99970 100
2005-10-21 07:53:33 51°11.345 2°36.844 -999 98 13.5 99980 100
2005-10-21 07:53:38 51°11.36 2°36.857 -999 97 13.5 99980 100
2005-10-21 07:53:43 51°11.374 2°36.871 -999 87 13.5 99970 100
2005-10-21 07:53:48 51°11.389 2°36.885 -999 92 13.5 99970 100
2005-10-21 07:53:53 51°11.404 2°36.899 -999 102 13.5 99980 100
2005-10-21 07:53:57 51°11.416 2°36.91 -999 105 13.5 99980 100
2005-10-21 07:54:03 51°11.433 2°36.926 -999 89 13.5 99980 100
2005-10-21 07:54:08 51°11.448 2°36.94 -999 85 13.5 99980 100
2005-10-21 07:54:13 51°11.462 2°36.954 -999 93 13.5 99980 100
2005-10-21 07:54:18 51°11.477 2°36.968 -999 86 13.5 99980 100
2005-10-21 07:54:23 51°11.492 2°36.982 -999 97 13.5 99980 100
2005-10-21 07:54:28 51°11.506 2°36.996 -999 91 13.5 99980 100
2005-10-21 07:54:33 51°11.521 2°37.009 -999 92 13.6 99970 100
2005-10-21 07:54:37 51°11.533 2°37.02 -999 91 13.6 99970 100
2005-10-21 07:54:43 51°11.55 2°37.036 -999 89 13.6 99970 100
2005-10-21 07:54:48 51°11.565 2°37.05 -999 92 13.6 99970 100
2005-10-21 07:54:53 51°11.58 2°37.064 -999 95 13.6 99980 100
2005-10-21 07:54:57 51°11.591 2°37.074 -999 93 13.6 99980 100
2005-10-21 07:55:03 51°11.609 2°37.09 -999 85 13.6 99970 100
2005-10-21 07:55:08 51°11.624 2°37.104 -999 93 13.6 99970 100
2005-10-21 07:55:13 51°11.639 2°37.118 -999 93 13.6 99980 100
2005-10-21 07:55:17 51°11.65 2°37.129 -999 92 13.6 99980 100
2005-10-21 07:55:23 51°11.668 2°37.145 -999 94 13.6 99970 100
2005-10-21 07:55:28 51°11.682 2°37.158 -999 93 13.6 99970 100
2005-10-21 07:55:33 51°11.697 2°37.172 -999 92 13.5 99970 100
2005-10-21 07:55:37 51°11.709 2°37.182 -999 91 13.5 99970 100
2005-10-21 07:55:43 51°11.727 2°37.199 -999 111 13.6 99970 100
2005-10-21 07:55:48 51°11.741 2°37.212 -999 103 13.6 99970 100
2005-10-21 07:55:53 51°11.756 2°37.226 -999 94 13.6 99970 100
2005-10-21 07:55:58 51°11.77 2°37.239 -999 89 13.6 99970 100
2005-10-21 07:56:03 51°11.785 2°37.253 -999 95 13.6 99960 100
2005-10-21 07:56:08 51°11.8 2°37.266 -999 100 13.6 99960 100
2005-10-21 07:56:13 51°11.814 2°37.28 -999 97 13.5 99960 100
2005-10-21 07:56:18 51°11.829 2°37.293 -999 93 13.5 99960 100
2005-10-21 07:56:23 51°11.844 2°37.307 -999 90 13.5 99960 100
2005-10-21 07:56:28 51°11.859 2°37.321 -999 94 13.5 99960 100
2005-10-21 07:56:33 51°11.873 2°37.334 -999 97 13.5 99970 100
2005-10-21 07:56:38 51°11.887 2°37.348 -999 100 13.5 99970 100
2005-10-21 07:56:43 51°11.902 2°37.362 -999 86 13.5 99960 100
2005-10-21 07:56:48 51°11.917 2°37.375 -999 90 13.5 99960 100
2005-10-21 07:56:53 51°11.931 2°37.389 -999 98 13.6 99970 100
2005-10-21 07:56:58 51°11.946 2°37.402 -999 82 13.6 99970 100
2005-10-21 07:57:03 51°11.961 2°37.416 -999 91 13.6 99970 100
2005-10-21 07:57:08 51°11.975 2°37.43 -999 93 13.6 99970 100
2005-10-21 07:57:13 51°11.99 2°37.443 -999 90 13.6 99970 100
2005-10-21 07:57:18 51°12.004 2°37.457 -999 93 13.6 99970 100
2005-10-21 07:57:23 51°12.019 2°37.471 -999 97 13.6 99970 100
2005-10-21 07:57:28 51°12.033 2°37.485 -999 102 13.6 99970 100
2005-10-21 07:57:33 51°12.048 2°37.498 -999 100 13.5 99970 100
2005-10-21 07:57:37 51°12.06 2°37.509 -999 92 13.5 99970 100
2005-10-21 07:57:43 51°12.078 2°37.524 -999 104 13.5 99960 100
2005-10-21 07:57:48 51°12.092 2°37.538 -999 100 13.5 99960 100
2005-10-21 07:57:53 51°12.107 2°37.551 -999 86 13.5 99960 100
2005-10-21 07:57:57 51°12.119 2°37.562 -999 95 13.5 99960 100
2005-10-21 07:58:03 51°12.136 2°37.579 -999 93 13.5 99960 100
2005-10-21 07:58:08 51°12.151 2°37.593 -999 92 13.5 99960 100
2005-10-21 07:58:13 51°12.165 2°37.607 -999 88 13.6 99970 100
2005-10-21 07:58:17 51°12.177 2°37.618 -999 91 13.6 99970 100
2005-10-21 07:58:23 51°12.194 2°37.634 -999 92 13.6 99960 100
2005-10-21 07:58:28 51°12.209 2°37.647 -999 98 13.6 99960 100
2005-10-21 07:58:33 51°12.223 2°37.661 -999 94 13.6 99970 100
2005-10-21 07:58:37 51°12.235 2°37.672 -999 90 13.6 99970 100
2005-10-21 07:58:43 51°12.253 2°37.688 -999 92 13.6 99960 100
2005-10-21 07:58:48 51°12.267 2°37.702 -999 92 13.6 99960 100
2005-10-21 07:58:53 51°12.282 2°37.715 -999 86 13.6 99950 100
2005-10-21 07:58:57 51°12.294 2°37.726 -999 87 13.6 99950 100
2005-10-21 07:59:03 51°12.311 2°37.742 -999 94 13.6 99970 100
2005-10-21 07:59:08 51°12.326 2°37.755 -999 97 13.6 99970 100
2005-10-21 07:59:13 51°12.341 2°37.769 -999 89 13.6 99960 100
2005-10-21 07:59:17 51°12.352 2°37.78 -999 99 13.6 99960 100
2005-10-21 07:59:23 51°12.37 2°37.796 -999 97 13.6 99960 100
2005-10-21 07:59:28 51°12.384 2°37.81 -999 87 13.6 99960 100
2005-10-21 07:59:33 51°12.399 2°37.823 -999 86 13.6 99960 100
2005-10-21 07:59:37 51°12.41 2°37.834 -999 96 13.6 99960 100
2005-10-21 07:59:43 51°12.428 2°37.85 -999 86 13.6 99960 100
2005-10-21 07:59:48 51°12.443 2°37.864 -999 93 13.6 99960 100
2005-10-21 07:59:53 51°12.458 2°37.877 -999 94 13.6 99960 100
2005-10-21 07:59:58 51°12.472 2°37.891 -999 88 13.6 99960 100
2005-10-21 08:00:03 51°12.487 2°37.904 -999 98 13.6 99960 100
2005-10-21 08:00:08 51°12.502 2°37.918 -999 95 13.6 99960 100
2005-10-21 08:00:13 51°12.516 2°37.931 -999 94 13.6 99960 100
2005-10-21 08:00:17 51°12.528 2°37.942 -999 98 13.6 99960 100
2005-10-21 08:00:23 51°12.546 2°37.958 -999 100 13.6 99950 100
2005-10-21 08:00:28 51°12.56 2°37.972 -999 100 13.6 99950 100
2005-10-21 08:00:33 51°12.575 2°37.986 -999 98 13.6 99950 100
2005-10-21 08:00:38 51°12.59 2°37.999 -999 100 13.6 99950 100
2005-10-21 08:00:43 51°12.605 2°38.013 -999 95 13.6 99960 100
2005-10-21 08:00:48 51°12.619 2°38.026 -999 100 13.6 99960 100
2005-10-21 08:00:53 51°12.634 2°38.04 -999 95 13.6 99960 100
2005-10-21 08:00:57 51°12.646 2°38.051 -999 100 13.6 99960 100
2005-10-21 08:01:03 51°12.663 2°38.067 -999 93 13.6 99960 100
2005-10-21 08:01:08 51°12.678 2°38.08 -999 93 13.6 99960 100
2005-10-21 08:01:13 51°12.693 2°38.095 -999 87 13.6 99960 100
2005-10-21 08:01:18 51°12.707 2°38.108 -999 98 13.6 99960 100
2005-10-21 08:01:23 51°12.722 2°38.122 -999 87 13.6 99960 100
2005-10-21 08:01:28 51°12.737 2°38.135 -999 100 13.6 99960 100